createdAt,value
2023-05-04T00:00:29.531Z,11.13
2023-05-04T00:03:15.555Z,10.98
2023-05-04T00:06:01.755Z,11.09
2023-05-04T00:08:47.729Z,11.21
2023-05-04T00:11:33.597Z,11.61
2023-05-04T00:14:19.400Z,11.85
2023-05-04T00:17:05.360Z,11.97
2023-05-04T00:19:51.247Z,11.66
2023-05-04T00:22:37.142Z,11.29
2023-05-04T00:25:23.056Z,11.74
2023-05-04T00:28:08.824Z,11.38
2023-05-04T00:30:54.601Z,11.47
2023-05-04T00:33:40.505Z,11.73
2023-05-04T00:36:26.493Z,11.02
2023-05-04T00:39:12.389Z,11.15
2023-05-04T00:41:58.007Z,11.64
2023-05-04T00:44:43.873Z,11.48
2023-05-04T00:47:29.789Z,11.39
2023-05-04T00:50:16.053Z,11.67
2023-05-04T00:53:02.094Z,11.66
2023-05-04T00:55:47.946Z,11.38
2023-05-04T00:58:33.713Z,11.74
2023-05-04T01:01:19.513Z,12.13
2023-05-04T01:04:05.500Z,11.99
2023-05-04T01:06:51.760Z,11.37
2023-05-04T01:09:37.496Z,11.07
2023-05-04T01:12:23.397Z,11.10
2023-05-04T01:15:09.249Z,11.84
2023-05-04T01:17:54.971Z,11.57
2023-05-04T01:20:40.778Z,11.86
2023-05-04T01:23:26.619Z,12.02
2023-05-04T01:26:12.379Z,11.52
2023-05-04T01:28:58.305Z,12.75
2023-05-04T01:31:44.111Z,11.96
2023-05-04T01:34:29.871Z,12.43
2023-05-04T01:37:15.819Z,12.20
2023-05-04T01:40:01.816Z,12.07
2023-05-04T01:42:48.010Z,12.38
2023-05-04T01:45:33.868Z,12.61
2023-05-04T01:48:19.679Z,12.48
2023-05-04T01:51:05.658Z,12.48
2023-05-04T01:53:51.500Z,12.28
2023-05-04T01:56:37.474Z,12.65
2023-05-04T01:59:23.307Z,12.22
2023-05-04T02:02:09.346Z,12.55
2023-05-04T02:04:55.277Z,13.70
2023-05-04T02:07:41.218Z,13.77
2023-05-04T02:10:27.076Z,13.79
2023-05-04T02:13:13.103Z,12.86
2023-05-04T02:15:59.183Z,12.14
2023-05-04T02:18:45.048Z,13.16
2023-05-04T02:21:31.091Z,13.00
2023-05-04T02:24:16.988Z,13.64
2023-05-04T02:27:03.104Z,12.54
2023-05-04T02:29:49.069Z,12.32
2023-05-04T02:32:37.018Z,12.71
2023-05-04T02:35:22.976Z,13.67
2023-05-04T02:38:08.800Z,13.94
2023-05-04T02:40:54.680Z,13.61
2023-05-04T02:43:42.432Z,13.73
2023-05-04T02:46:28.409Z,13.66
2023-05-04T02:49:14.528Z,13.61
2023-05-04T02:52:00.677Z,14.50
2023-05-04T02:54:46.488Z,13.56
2023-05-04T02:57:32.454Z,14.01
2023-05-04T03:00:18.259Z,13.08
2023-05-04T03:03:04.110Z,12.05
2023-05-04T03:05:50.105Z,13.23
2023-05-04T03:08:36.983Z,12.76
2023-05-04T03:11:22.808Z,11.31
2023-05-04T03:14:08.655Z,11.07
2023-05-04T03:16:54.649Z,12.11
2023-05-04T03:19:41.066Z,12.35
2023-05-04T03:22:26.916Z,12.82
2023-05-04T03:25:12.660Z,12.63
2023-05-04T03:27:58.636Z,13.64
2023-05-04T03:30:44.400Z,13.22
2023-05-04T03:33:30.260Z,13.48
2023-05-04T03:36:16.115Z,13.87
2023-05-04T03:39:01.826Z,13.30
2023-05-04T03:41:47.790Z,13.52
2023-05-04T03:44:33.705Z,12.71
2023-05-04T03:47:19.531Z,14.00
2023-05-04T03:50:05.681Z,14.12
2023-05-04T03:52:52.017Z,14.42
2023-05-04T03:55:37.814Z,14.34
2023-05-04T03:58:23.816Z,13.92
2023-05-04T04:01:09.749Z,14.07
2023-05-04T04:03:55.765Z,14.20
2023-05-04T04:06:43.421Z,15.18
2023-05-04T04:09:29.359Z,14.99
2023-05-04T04:12:15.366Z,14.61
2023-05-04T04:15:01.241Z,13.92
2023-05-04T04:17:47.153Z,13.68
2023-05-04T04:20:33.023Z,14.66
2023-05-04T04:23:18.823Z,14.07
2023-05-04T04:26:04.652Z,14.29
2023-05-04T04:28:50.618Z,14.44
2023-05-04T04:31:36.486Z,14.42
2023-05-04T04:34:22.654Z,14.67
2023-05-04T04:37:08.551Z,14.22
2023-05-04T04:39:54.389Z,14.74
2023-05-04T04:42:40.273Z,14.82
2023-05-04T04:45:26.070Z,15.00
2023-05-04T04:48:11.842Z,13.92
2023-05-04T04:50:57.702Z,14.57
2023-05-04T04:53:43.643Z,14.94
2023-05-04T04:56:29.694Z,14.74
2023-05-04T04:59:15.441Z,14.71
2023-05-04T05:02:01.370Z,14.47
2023-05-04T05:04:47.277Z,14.14
2023-05-04T05:07:33.230Z,13.91
2023-05-04T05:10:19.076Z,13.72
2023-05-04T05:13:04.880Z,13.62
2023-05-04T05:15:50.794Z,14.52
2023-05-04T05:18:36.603Z,14.12
2023-05-04T05:21:22.359Z,13.88
2023-05-04T05:24:08.218Z,13.04
2023-05-04T05:26:54.120Z,13.11
2023-05-04T05:29:39.928Z,13.17
2023-05-04T05:32:25.872Z,12.83
2023-05-04T05:35:11.657Z,14.02
2023-05-04T05:37:57.747Z,13.37
2023-05-04T05:40:45.635Z,12.71
2023-05-04T05:43:31.378Z,13.21
2023-05-04T05:46:17.510Z,13.34
2023-05-04T05:49:03.423Z,12.27
2023-05-04T05:51:49.245Z,12.22
2023-05-04T05:54:35.131Z,12.71
2023-05-04T05:57:20.916Z,13.12
2023-05-04T06:00:07.052Z,11.57
2023-05-04T06:02:53.482Z,11.48
2023-05-04T06:05:39.289Z,11.60
2023-05-04T06:08:25.290Z,11.58
2023-05-04T06:11:11.290Z,10.57
2023-05-04T06:13:57.109Z,10.26
2023-05-04T06:16:43.028Z,9.94
2023-05-04T06:19:30.963Z,10.57
2023-05-04T06:22:17.514Z,10.50
2023-05-04T06:25:07.027Z,10.45
2023-05-04T06:27:53.974Z,10.56
2023-05-04T06:30:41.711Z,11.32
2023-05-04T06:33:27.586Z,11.00
2023-05-04T06:36:13.569Z,11.60
2023-05-04T06:38:59.406Z,10.82
2023-05-04T06:41:45.403Z,10.98
2023-05-04T06:44:31.412Z,11.84
2023-05-04T06:47:17.357Z,11.85
2023-05-04T06:50:03.359Z,12.50
2023-05-04T06:52:49.579Z,12.25
2023-05-04T06:55:35.417Z,12.05
2023-05-04T06:58:21.217Z,12.50
2023-05-04T07:01:07.101Z,12.57
2023-05-04T07:03:53.153Z,12.10
2023-05-04T07:06:39.046Z,12.24
2023-05-04T07:09:24.811Z,12.42
2023-05-04T07:12:10.729Z,12.00
2023-05-04T07:14:56.538Z,12.11
2023-05-04T07:17:42.485Z,11.88
2023-05-04T07:20:28.546Z,12.36
2023-05-04T07:23:14.411Z,11.75
2023-05-04T07:26:00.362Z,11.90
2023-05-04T07:28:46.210Z,12.24
2023-05-04T07:31:32.210Z,12.61
2023-05-04T07:34:18.506Z,13.32
2023-05-04T07:37:07.180Z,12.60
2023-05-04T07:39:53.085Z,12.94
2023-05-04T07:42:39.070Z,13.45
2023-05-04T07:45:26.980Z,13.51
2023-05-04T07:48:12.852Z,13.24
2023-05-04T07:50:58.864Z,13.27
2023-05-04T07:53:44.640Z,13.35
2023-05-04T07:56:30.643Z,13.15
2023-05-04T07:59:16.502Z,12.59
2023-05-04T08:02:02.287Z,13.03
2023-05-04T08:04:48.171Z,13.11
2023-05-04T08:07:34.170Z,13.27
2023-05-04T08:10:20.005Z,13.21
2023-05-04T08:13:06.094Z,13.19
2023-05-04T08:15:52.314Z,13.60
2023-05-04T08:18:38.236Z,13.44
2023-05-04T08:21:24.342Z,14.36
2023-05-04T08:24:10.143Z,13.65
2023-05-04T08:27:07.296Z,13.96
2023-05-04T08:29:54.903Z,14.35
2023-05-04T08:32:40.895Z,14.90
2023-05-04T08:35:26.936Z,14.76
2023-05-04T08:38:12.769Z,14.50
2023-05-04T08:40:58.691Z,14.93
2023-05-04T08:43:44.602Z,14.86
2023-05-04T08:46:30.630Z,14.73
2023-05-04T08:49:16.604Z,14.59
2023-05-04T08:52:02.383Z,14.81
2023-05-04T08:54:48.381Z,14.16
2023-05-04T08:57:34.189Z,14.01
2023-05-04T09:00:20.268Z,14.79
2023-05-04T09:03:06.877Z,14.30
2023-05-04T09:05:52.873Z,15.19
2023-05-04T09:08:38.868Z,15.36
2023-05-04T09:11:24.759Z,14.76
2023-05-04T09:14:10.502Z,14.94
2023-05-04T09:16:56.459Z,14.56
2023-05-04T09:19:42.395Z,14.59
2023-05-04T09:22:28.900Z,14.00
2023-05-04T09:25:15.115Z,13.54
2023-05-04T09:28:00.989Z,14.10
2023-05-04T09:30:47.033Z,14.38
2023-05-04T09:33:33.234Z,13.49
2023-05-04T09:36:19.215Z,14.06
2023-05-04T09:39:05.166Z,13.45
2023-05-04T09:41:51.046Z,9.36
2023-05-04T09:44:36.764Z,10.43
2023-05-04T09:47:22.741Z,11.37
2023-05-04T09:50:08.527Z,10.59
2023-05-04T09:52:54.451Z,10.49
2023-05-04T09:55:40.749Z,12.16
2023-05-04T09:58:26.623Z,12.48
2023-05-04T10:01:12.640Z,13.06
2023-05-04T10:03:58.583Z,11.98
2023-05-04T10:06:44.520Z,11.55
2023-05-04T10:09:30.484Z,13.01
2023-05-04T10:12:16.354Z,12.55
2023-05-04T10:15:02.256Z,14.74
2023-05-04T10:17:48.212Z,13.82
2023-05-04T10:20:34.025Z,13.65
2023-05-04T10:23:21.437Z,12.92
2023-05-04T10:26:09.176Z,11.17
2023-05-04T10:28:55.098Z,9.98
2023-05-04T10:31:40.931Z,8.71
2023-05-04T10:34:27.039Z,6.98
2023-05-04T10:37:12.897Z,6.66
2023-05-04T10:39:58.773Z,6.77
2023-05-04T10:42:44.508Z,7.53
2023-05-04T10:45:30.320Z,7.35
2023-05-04T10:48:16.202Z,7.06
2023-05-04T10:51:02.098Z,6.36
2023-05-04T10:53:48.089Z,6.37
2023-05-04T10:56:33.987Z,7.03
2023-05-04T10:59:19.951Z,6.94
2023-05-04T11:02:05.807Z,6.91
2023-05-04T11:04:51.509Z,7.40
2023-05-04T11:07:37.542Z,6.27
2023-05-04T11:10:23.931Z,5.53
2023-05-04T11:13:09.699Z,5.40
2023-05-04T11:15:55.662Z,5.32
2023-05-04T11:18:41.368Z,5.26
2023-05-04T11:21:27.289Z,5.49
2023-05-04T11:24:13.170Z,5.54
2023-05-04T11:26:59.035Z,5.55
2023-05-04T11:29:44.934Z,5.28
2023-05-04T11:32:30.826Z,5.19
2023-05-04T11:35:16.863Z,5.14
2023-05-04T11:38:02.640Z,4.95
2023-05-04T11:40:48.431Z,4.79
2023-05-04T11:43:34.351Z,5.02
2023-05-04T11:46:20.440Z,4.55
2023-05-04T11:49:06.202Z,4.92
2023-05-04T11:51:52.102Z,4.73
2023-05-04T11:54:38.018Z,4.41
2023-05-04T11:57:24.091Z,4.51
2023-05-04T12:00:10.081Z,4.33
2023-05-04T12:02:55.860Z,4.37
2023-05-04T12:05:41.882Z,4.29
2023-05-04T12:08:27.959Z,4.43
2023-05-04T12:11:13.734Z,4.69
2023-05-04T12:14:01.770Z,4.73
2023-05-04T12:16:47.684Z,4.17
2023-05-04T12:19:33.682Z,4.58
2023-05-04T12:22:19.650Z,4.43
2023-05-04T12:25:05.728Z,4.29
2023-05-04T12:27:52.036Z,4.42
2023-05-04T12:30:37.956Z,4.18
2023-05-04T12:33:23.708Z,4.06
2023-05-04T12:36:09.713Z,3.92
2023-05-04T12:38:56.046Z,3.69
2023-05-04T12:41:41.953Z,4.12
2023-05-04T12:44:27.797Z,3.67
2023-05-04T12:47:13.571Z,4.01
2023-05-04T12:49:59.417Z,4.28
2023-05-04T12:52:45.285Z,3.92
2023-05-04T12:55:31.121Z,4.27
2023-05-04T12:58:16.895Z,4.63
2023-05-04T13:01:02.683Z,4.20
2023-05-04T13:03:48.624Z,4.31
2023-05-04T13:06:34.868Z,4.40
2023-05-04T13:09:20.726Z,4.42
2023-05-04T13:12:06.577Z,4.25
2023-05-04T13:14:52.501Z,4.22
2023-05-04T13:17:38.402Z,4.49
2023-05-04T13:20:24.282Z,4.47
2023-05-04T13:23:10.169Z,3.99
2023-05-04T13:25:55.942Z,4.35
2023-05-04T13:28:41.781Z,4.05
2023-05-04T13:31:27.698Z,4.26
2023-05-04T13:34:13.657Z,4.03
2023-05-04T13:36:59.465Z,4.22
2023-05-04T13:39:45.317Z,3.89
2023-05-04T13:42:31.218Z,3.88
2023-05-04T13:45:16.936Z,3.80
2023-05-04T13:48:02.873Z,4.00
2023-05-04T13:50:48.705Z,3.49
2023-05-04T13:53:34.468Z,3.17
2023-05-04T13:56:20.386Z,3.08
2023-05-04T13:59:06.301Z,2.95
2023-05-04T14:01:52.121Z,2.84
2023-05-04T14:04:39.913Z,3.14
2023-05-04T14:07:26.149Z,2.97
2023-05-04T14:10:12.021Z,2.85
2023-05-04T14:12:57.919Z,2.86
2023-05-04T14:15:43.632Z,2.70
2023-05-04T14:18:29.585Z,2.95
2023-05-04T14:21:15.485Z,2.54
2023-05-04T14:24:01.245Z,2.67
2023-05-04T14:26:47.021Z,2.65
2023-05-04T14:29:32.774Z,2.65
2023-05-04T14:32:18.695Z,2.70
2023-05-04T14:35:04.984Z,2.75
2023-05-04T14:37:51.252Z,2.70
2023-05-04T14:40:37.222Z,2.57
2023-05-04T14:43:23.045Z,2.95
2023-05-04T14:46:08.772Z,2.97
2023-05-04T14:48:54.746Z,2.92
2023-05-04T14:51:40.590Z,2.83
2023-05-04T14:54:26.501Z,2.44
2023-05-04T14:57:13.092Z,2.74
2023-05-04T14:59:58.861Z,2.66
2023-05-04T15:02:44.752Z,2.66
2023-05-04T15:05:30.775Z,2.58
2023-05-04T15:08:16.588Z,2.42
2023-05-04T15:11:02.573Z,2.82
2023-05-04T15:13:48.327Z,2.88
2023-05-04T15:16:34.143Z,2.32
2023-05-04T15:19:20.077Z,2.28
2023-05-04T15:22:05.965Z,2.13
2023-05-04T15:24:51.898Z,2.44
2023-05-04T15:27:37.675Z,2.16
2023-05-04T15:30:23.593Z,2.11
2023-05-04T15:33:09.687Z,2.04
2023-05-04T15:35:55.726Z,2.06
2023-05-04T15:38:41.610Z,2.17
2023-05-04T15:41:27.427Z,1.93
2023-05-04T15:44:13.252Z,2.16
2023-05-04T15:46:59.096Z,1.99
2023-05-04T15:49:45.060Z,2.10
2023-05-04T15:52:31.092Z,2.16
2023-05-04T15:55:25.950Z,2.40
2023-05-04T15:58:12.826Z,2.61
2023-05-04T16:00:59.024Z,2.63
2023-05-04T16:03:44.903Z,2.67
2023-05-04T16:06:30.777Z,2.63
2023-05-04T16:09:16.762Z,2.78
2023-05-04T16:12:02.674Z,2.61
2023-05-04T16:14:48.876Z,2.49
2023-05-04T16:17:34.942Z,2.61
2023-05-04T16:20:20.790Z,2.47
2023-05-04T16:23:06.640Z,2.51
2023-05-04T16:25:52.410Z,2.46
2023-05-04T16:28:38.560Z,2.29
2023-05-04T16:31:24.326Z,2.36
2023-05-04T16:34:10.398Z,2.12
2023-05-04T16:36:56.345Z,2.28
2023-05-04T16:39:42.150Z,2.18
2023-05-04T16:42:28.100Z,2.21
2023-05-04T16:45:13.954Z,2.21
2023-05-04T16:47:59.942Z,2.28
2023-05-04T16:50:45.823Z,2.15
2023-05-04T16:53:31.697Z,2.01
2023-05-04T16:56:17.667Z,2.31
2023-05-04T16:59:03.555Z,2.15
2023-05-04T17:01:49.633Z,2.03
2023-05-04T17:04:35.585Z,1.90
2023-05-04T17:07:21.336Z,2.17
2023-05-04T17:10:07.409Z,2.04
2023-05-04T17:12:53.652Z,2.19
2023-05-04T17:15:39.577Z,2.19
2023-05-04T17:18:25.466Z,2.23
2023-05-04T17:21:11.409Z,2.34
2023-05-04T17:23:57.174Z,2.04
2023-05-04T17:26:43.135Z,2.13
2023-05-04T17:29:31.111Z,2.12
2023-05-04T17:32:17.139Z,2.34
2023-05-04T17:35:12.297Z,2.14
2023-05-04T17:38:06.796Z,1.86
2023-05-04T17:40:52.538Z,1.96
2023-05-04T17:43:38.586Z,1.97
2023-05-04T17:46:24.365Z,1.97
2023-05-04T17:49:10.321Z,2.19
2023-05-04T17:51:56.271Z,2.01
2023-05-04T17:54:42.121Z,2.21
2023-05-04T17:57:27.979Z,2.12
2023-05-04T18:00:13.896Z,2.19
2023-05-04T18:02:59.765Z,2.17
2023-05-04T18:05:45.748Z,2.05
2023-05-04T18:08:31.510Z,2.22
2023-05-04T18:11:17.400Z,2.30
2023-05-04T18:14:03.289Z,2.33
2023-05-04T18:16:49.044Z,2.30
2023-05-04T18:19:35.036Z,2.16
2023-05-04T18:22:20.862Z,2.09
2023-05-04T18:25:06.777Z,2.41
2023-05-04T18:27:52.706Z,2.18
2023-05-04T18:30:38.474Z,2.24
2023-05-04T18:33:24.425Z,2.42
2023-05-04T18:36:10.293Z,2.36
2023-05-04T18:38:56.001Z,2.29
2023-05-04T18:41:41.955Z,2.16
2023-05-04T18:44:27.732Z,2.24
2023-05-04T18:47:13.603Z,2.18
2023-05-04T18:49:59.589Z,2.36
2023-05-04T18:52:45.466Z,2.15
2023-05-04T18:55:31.368Z,2.43
2023-05-04T18:58:17.342Z,2.08
2023-05-04T19:01:03.307Z,2.30
2023-05-04T19:03:49.288Z,2.28
2023-05-04T19:06:35.002Z,2.16
2023-05-04T19:09:20.814Z,2.16
2023-05-04T19:12:06.821Z,2.32
2023-05-04T19:14:52.452Z,2.57
2023-05-04T19:17:38.500Z,2.18
2023-05-04T19:20:24.282Z,2.23
2023-05-04T19:23:10.343Z,2.25
2023-05-04T19:25:56.329Z,2.28
2023-05-04T19:28:42.085Z,2.20
2023-05-04T19:31:27.847Z,2.23
2023-05-04T19:34:15.538Z,2.04
2023-05-04T19:37:02.929Z,2.44
2023-05-04T19:39:48.969Z,2.15
2023-05-04T19:42:34.794Z,2.24
2023-05-04T19:45:20.662Z,2.16
2023-05-04T19:48:06.441Z,2.39
2023-05-04T19:50:52.315Z,2.31
2023-05-04T19:53:38.186Z,2.16
2023-05-04T19:56:24.073Z,2.08
2023-05-04T19:59:09.884Z,2.19
2023-05-04T20:01:55.576Z,2.03
2023-05-04T20:04:41.386Z,2.10
2023-05-04T20:07:27.194Z,2.03
2023-05-04T20:10:13.063Z,2.16
2023-05-04T20:12:58.878Z,2.04
2023-05-04T20:15:44.749Z,2.06
2023-05-04T20:18:30.661Z,2.22
2023-05-04T20:21:16.469Z,2.14
2023-05-04T20:24:02.521Z,1.93
2023-05-04T20:26:48.367Z,2.11
2023-05-04T20:29:34.284Z,1.94
2023-05-04T20:32:20.317Z,1.94
2023-05-04T20:35:06.649Z,1.96
2023-05-04T20:37:52.843Z,2.08
2023-05-04T20:40:38.668Z,2.03
2023-05-04T20:43:24.575Z,1.97
2023-05-04T20:46:10.460Z,1.91
2023-05-04T20:48:56.244Z,2.01
2023-05-04T20:51:42.128Z,1.94
2023-05-04T20:54:28.037Z,1.86
2023-05-04T20:57:13.776Z,1.88
2023-05-04T20:59:59.603Z,1.79
2023-05-04T21:02:45.442Z,2.11
2023-05-04T21:05:31.339Z,1.94
2023-05-04T21:08:17.310Z,1.99
2023-05-04T21:11:03.180Z,2.03
2023-05-04T21:13:49.072Z,2.02
2023-05-04T21:16:35.038Z,1.92
2023-05-04T21:19:20.778Z,1.77
2023-05-04T21:22:06.683Z,1.90
2023-05-04T21:24:52.623Z,2.04
2023-05-04T21:27:38.576Z,1.85
2023-05-04T21:30:24.474Z,2.10
2023-05-04T21:33:12.195Z,1.90
2023-05-04T21:36:00.160Z,1.79
2023-05-04T21:38:46.102Z,2.09
2023-05-04T21:41:31.963Z,1.98
2023-05-04T21:44:17.986Z,2.16
2023-05-04T21:47:04.024Z,2.14
2023-05-04T21:49:50.280Z,2.06
2023-05-04T21:52:36.162Z,1.89
2023-05-04T21:55:21.886Z,1.92
2023-05-04T21:58:09.612Z,2.14
2023-05-04T22:00:57.499Z,2.13
2023-05-04T22:03:43.420Z,2.07
2023-05-04T22:06:29.238Z,2.17
2023-05-04T22:09:15.210Z,2.20
2023-05-04T22:12:01.113Z,2.25
2023-05-04T22:14:47.103Z,2.10
2023-05-04T22:17:33.001Z,2.06
2023-05-04T22:20:18.727Z,2.22
2023-05-04T22:23:04.549Z,2.18
2023-05-04T22:25:50.407Z,2.38
2023-05-04T22:28:36.280Z,2.33
2023-05-04T22:31:22.363Z,2.21
2023-05-04T22:34:08.525Z,2.41
2023-05-04T22:36:55.358Z,2.37
2023-05-04T22:39:41.206Z,2.52
2023-05-04T22:42:27.065Z,2.29
2023-05-04T22:45:13.030Z,2.37
2023-05-04T22:47:59.080Z,2.58
2023-05-04T22:50:44.826Z,2.36
2023-05-04T22:53:30.682Z,2.36
2023-05-04T22:56:16.426Z,2.26
2023-05-04T22:59:02.263Z,2.35
2023-05-04T23:01:48.196Z,2.18
2023-05-04T23:04:33.994Z,2.41
2023-05-04T23:07:19.853Z,2.25
2023-05-04T23:10:05.907Z,2.19
2023-05-04T23:12:52.238Z,2.13
2023-05-04T23:15:38.074Z,2.22
2023-05-04T23:18:23.903Z,2.35
2023-05-04T23:21:09.683Z,2.28
2023-05-04T23:23:55.676Z,2.42
2023-05-04T23:26:43.465Z,2.27
2023-05-04T23:29:29.314Z,2.34
2023-05-04T23:32:15.184Z,2.40
2023-05-04T23:35:00.965Z,2.38
2023-05-04T23:37:46.798Z,2.38
2023-05-04T23:40:32.537Z,2.17
2023-05-04T23:43:18.455Z,2.50
2023-05-04T23:46:04.350Z,2.41
2023-05-04T23:48:50.461Z,2.37
2023-05-04T23:51:36.433Z,2.50
2023-05-04T23:54:22.356Z,2.33
2023-05-04T23:57:08.233Z,2.43
2023-05-04T23:59:54.156Z,2.38
